sensor_id;sensor_type;location;lat;lon;timestamp;P1;durP1;ratioP1;P2;durP2;ratioP2
25449;SDS011;13371;52.080;5.624;2024-02-21T00:02:08;12.02;;;5.05;;
25449;SDS011;13371;52.080;5.624;2024-02-21T00:04:34;13.02;;;4.55;;
25449;SDS011;13371;52.080;5.624;2024-02-21T00:07:00;10.77;;;4.70;;
25449;SDS011;13371;52.080;5.624;2024-02-21T00:09:25;12.65;;;4.95;;
25449;SDS011;13371;52.080;5.624;2024-02-21T00:11:51;9.60;;;4.53;;
25449;SDS011;13371;52.080;5.624;2024-02-21T00:14:16;10.13;;;4.50;;
25449;SDS011;13371;52.080;5.624;2024-02-21T00:16:42;11.82;;;4.57;;
25449;SDS011;13371;52.080;5.624;2024-02-21T00:19:07;18.00;;;5.22;;
25449;SDS011;13371;52.080;5.624;2024-02-21T00:21:33;12.00;;;4.70;;
25449;SDS011;13371;52.080;5.624;2024-02-21T00:23:58;9.45;;;4.63;;
25449;SDS011;13371;52.080;5.624;2024-02-21T00:26:24;12.95;;;4.82;;
25449;SDS011;13371;52.080;5.624;2024-02-21T00:28:50;8.68;;;4.57;;
25449;SDS011;13371;52.080;5.624;2024-02-21T00:31:16;11.13;;;4.75;;
25449;SDS011;13371;52.080;5.624;2024-02-21T00:33:42;10.77;;;4.22;;
25449;SDS011;13371;52.080;5.624;2024-02-21T00:36:10;14.93;;;4.60;;
25449;SDS011;13371;52.080;5.624;2024-02-21T00:38:36;7.60;;;3.88;;
25449;SDS011;13371;52.080;5.624;2024-02-21T00:41:01;16.83;;;5.30;;
25449;SDS011;13371;52.080;5.624;2024-02-21T00:43:27;10.15;;;4.57;;
25449;SDS011;13371;52.080;5.624;2024-02-21T00:45:53;13.55;;;4.93;;
25449;SDS011;13371;52.080;5.624;2024-02-21T00:48:18;12.65;;;4.45;;
25449;SDS011;13371;52.080;5.624;2024-02-21T00:50:44;13.95;;;5.13;;
25449;SDS011;13371;52.080;5.624;2024-02-21T00:53:09;15.15;;;4.70;;
25449;SDS011;13371;52.080;5.624;2024-02-21T00:55:35;10.80;;;4.25;;
25449;SDS011;13371;52.080;5.624;2024-02-21T00:58:00;15.27;;;4.93;;
25449;SDS011;13371;52.080;5.624;2024-02-21T01:00:26;10.35;;;4.78;;
25449;SDS011;13371;52.080;5.624;2024-02-21T01:02:51;7.82;;;4.50;;
25449;SDS011;13371;52.080;5.624;2024-02-21T01:05:17;9.63;;;4.38;;
25449;SDS011;13371;52.080;5.624;2024-02-21T01:07:43;9.68;;;4.65;;
25449;SDS011;13371;52.080;5.624;2024-02-21T01:10:08;12.07;;;5.25;;
25449;SDS011;13371;52.080;5.624;2024-02-21T01:12:34;11.88;;;4.70;;
25449;SDS011;13371;52.080;5.624;2024-02-21T01:14:59;10.10;;;4.88;;
25449;SDS011;13371;52.080;5.624;2024-02-21T01:17:25;12.48;;;5.07;;
25449;SDS011;13371;52.080;5.624;2024-02-21T01:19:51;13.70;;;5.07;;
25449;SDS011;13371;52.080;5.624;2024-02-21T01:22:16;9.70;;;5.07;;
25449;SDS011;13371;52.080;5.624;2024-02-21T01:24:42;10.85;;;4.32;;
25449;SDS011;13371;52.080;5.624;2024-02-21T01:27:08;9.05;;;5.05;;
25449;SDS011;13371;52.080;5.624;2024-02-21T01:29:34;13.88;;;4.82;;
25449;SDS011;13371;52.080;5.624;2024-02-21T01:32:00;14.35;;;5.18;;
25449;SDS011;13371;52.080;5.624;2024-02-21T01:34:25;9.35;;;4.80;;
25449;SDS011;13371;52.080;5.624;2024-02-21T01:36:51;14.75;;;5.38;;
25449;SDS011;13371;52.080;5.624;2024-02-21T01:39:17;17.27;;;5.93;;
25449;SDS011;13371;52.080;5.624;2024-02-21T01:41:42;17.55;;;5.18;;
25449;SDS011;13371;52.080;5.624;2024-02-21T01:44:08;13.40;;;4.68;;
25449;SDS011;13371;52.080;5.624;2024-02-21T01:46:33;9.18;;;5.28;;
25449;SDS011;13371;52.080;5.624;2024-02-21T01:49:00;9.25;;;4.32;;
25449;SDS011;13371;52.080;5.624;2024-02-21T01:51:26;8.88;;;4.40;;
25449;SDS011;13371;52.080;5.624;2024-02-21T01:53:52;15.18;;;5.00;;
25449;SDS011;13371;52.080;5.624;2024-02-21T01:56:20;15.32;;;5.47;;
25449;SDS011;13371;52.080;5.624;2024-02-21T01:58:46;15.40;;;5.63;;
25449;SDS011;13371;52.080;5.624;2024-02-21T02:01:13;10.52;;;5.15;;
25449;SDS011;13371;52.080;5.624;2024-02-21T02:03:38;14.30;;;5.82;;
25449;SDS011;13371;52.080;5.624;2024-02-21T02:06:05;12.77;;;5.97;;
25449;SDS011;13371;52.080;5.624;2024-02-21T02:08:31;15.00;;;5.65;;
25449;SDS011;13371;52.080;5.624;2024-02-21T02:10:58;15.20;;;6.30;;
25449;SDS011;13371;52.080;5.624;2024-02-21T02:13:24;10.38;;;4.15;;
25449;SDS011;13371;52.080;5.624;2024-02-21T02:15:50;17.35;;;5.18;;
25449;SDS011;13371;52.080;5.624;2024-02-21T02:18:17;14.25;;;5.43;;
25449;SDS011;13371;52.080;5.624;2024-02-21T02:20:44;15.07;;;5.80;;
25449;SDS011;13371;52.080;5.624;2024-02-21T02:23:26;14.82;;;5.22;;
25449;SDS011;13371;52.080;5.624;2024-02-21T02:25:54;18.60;;;5.32;;
25449;SDS011;13371;52.080;5.624;2024-02-21T02:28:21;12.50;;;5.00;;
25449;SDS011;13371;52.080;5.624;2024-02-21T02:30:47;16.52;;;4.43;;
25449;SDS011;13371;52.080;5.624;2024-02-21T02:33:13;10.82;;;5.10;;
25449;SDS011;13371;52.080;5.624;2024-02-21T02:35:39;14.18;;;4.68;;
25449;SDS011;13371;52.080;5.624;2024-02-21T02:38:04;9.93;;;4.85;;
25449;SDS011;13371;52.080;5.624;2024-02-21T02:40:31;12.18;;;5.53;;
25449;SDS011;13371;52.080;5.624;2024-02-21T02:42:59;16.48;;;5.93;;
25449;SDS011;13371;52.080;5.624;2024-02-21T02:45:24;15.07;;;5.32;;
25449;SDS011;13371;52.080;5.624;2024-02-21T02:47:51;13.65;;;5.85;;
25449;SDS011;13371;52.080;5.624;2024-02-21T02:50:19;14.32;;;5.50;;
25449;SDS011;13371;52.080;5.624;2024-02-21T02:52:45;14.80;;;5.28;;
25449;SDS011;13371;52.080;5.624;2024-02-21T02:55:10;15.13;;;5.60;;
25449;SDS011;13371;52.080;5.624;2024-02-21T02:57:36;12.30;;;4.82;;
25449;SDS011;13371;52.080;5.624;2024-02-21T03:00:02;12.35;;;4.93;;
25449;SDS011;13371;52.080;5.624;2024-02-21T03:02:28;16.70;;;5.03;;
25449;SDS011;13371;52.080;5.624;2024-02-21T03:04:55;13.30;;;4.72;;
25449;SDS011;13371;52.080;5.624;2024-02-21T03:07:20;11.25;;;5.15;;
25449;SDS011;13371;52.080;5.624;2024-02-21T03:09:46;14.23;;;5.47;;
25449;SDS011;13371;52.080;5.624;2024-02-21T03:12:11;16.55;;;5.85;;
25449;SDS011;13371;52.080;5.624;2024-02-21T03:14:37;15.00;;;5.72;;
25449;SDS011;13371;52.080;5.624;2024-02-21T03:17:02;11.10;;;4.85;;
25449;SDS011;13371;52.080;5.624;2024-02-21T03:19:29;15.98;;;5.55;;
25449;SDS011;13371;52.080;5.624;2024-02-21T03:21:55;9.63;;;5.10;;
25449;SDS011;13371;52.080;5.624;2024-02-21T03:24:21;12.95;;;4.85;;
25449;SDS011;13371;52.080;5.624;2024-02-21T03:26:47;16.73;;;4.80;;
25449;SDS011;13371;52.080;5.624;2024-02-21T03:29:14;12.98;;;5.78;;
25449;SDS011;13371;52.080;5.624;2024-02-21T03:31:40;16.55;;;5.80;;
25449;SDS011;13371;52.080;5.624;2024-02-21T03:34:06;15.02;;;5.25;;
25449;SDS011;13371;52.080;5.624;2024-02-21T03:36:32;16.70;;;5.85;;
25449;SDS011;13371;52.080;5.624;2024-02-21T03:38:57;13.13;;;5.22;;
25449;SDS011;13371;52.080;5.624;2024-02-21T03:41:23;13.60;;;5.50;;
25449;SDS011;13371;52.080;5.624;2024-02-21T03:43:48;15.90;;;5.72;;
25449;SDS011;13371;52.080;5.624;2024-02-21T03:46:14;14.43;;;5.38;;
25449;SDS011;13371;52.080;5.624;2024-02-21T03:48:40;17.95;;;5.85;;
25449;SDS011;13371;52.080;5.624;2024-02-21T03:51:06;11.88;;;5.22;;
25449;SDS011;13371;52.080;5.624;2024-02-21T03:53:31;13.75;;;5.25;;
25449;SDS011;13371;52.080;5.624;2024-02-21T03:55:57;10.32;;;5.07;;
25449;SDS011;13371;52.080;5.624;2024-02-21T03:58:27;15.25;;;4.63;;
25449;SDS011;13371;52.080;5.624;2024-02-21T04:00:53;18.40;;;5.45;;
25449;SDS011;13371;52.080;5.624;2024-02-21T04:03:19;13.98;;;5.45;;
25449;SDS011;13371;52.080;5.624;2024-02-21T04:05:44;13.43;;;5.20;;
25449;SDS011;13371;52.080;5.624;2024-02-21T04:08:10;11.88;;;4.78;;
25449;SDS011;13371;52.080;5.624;2024-02-21T04:10:36;11.13;;;4.90;;
25449;SDS011;13371;52.080;5.624;2024-02-21T04:13:02;16.25;;;4.70;;
25449;SDS011;13371;52.080;5.624;2024-02-21T04:15:28;10.80;;;4.75;;
25449;SDS011;13371;52.080;5.624;2024-02-21T04:17:54;8.35;;;4.43;;
25449;SDS011;13371;52.080;5.624;2024-02-21T04:20:19;14.07;;;5.03;;
25449;SDS011;13371;52.080;5.624;2024-02-21T04:22:45;15.43;;;4.47;;
25449;SDS011;13371;52.080;5.624;2024-02-21T04:25:11;10.75;;;4.63;;
25449;SDS011;13371;52.080;5.624;2024-02-21T04:27:38;8.10;;;4.40;;
25449;SDS011;13371;52.080;5.624;2024-02-21T04:30:04;20.55;;;4.72;;
25449;SDS011;13371;52.080;5.624;2024-02-21T04:32:30;12.68;;;4.85;;
25449;SDS011;13371;52.080;5.624;2024-02-21T04:34:56;15.45;;;4.38;;
25449;SDS011;13371;52.080;5.624;2024-02-21T04:37:21;19.20;;;5.65;;
25449;SDS011;13371;52.080;5.624;2024-02-21T04:39:48;10.38;;;4.07;;
25449;SDS011;13371;52.080;5.624;2024-02-21T04:42:14;15.40;;;4.82;;
25449;SDS011;13371;52.080;5.624;2024-02-21T04:44:40;14.73;;;5.25;;
25449;SDS011;13371;52.080;5.624;2024-02-21T04:47:06;14.95;;;4.53;;
25449;SDS011;13371;52.080;5.624;2024-02-21T04:49:32;10.15;;;4.25;;
25449;SDS011;13371;52.080;5.624;2024-02-21T04:51:58;9.70;;;4.20;;
25449;SDS011;13371;52.080;5.624;2024-02-21T04:54:24;12.18;;;4.85;;
25449;SDS011;13371;52.080;5.624;2024-02-21T04:56:50;11.27;;;5.28;;
25449;SDS011;13371;52.080;5.624;2024-02-21T04:59:16;10.95;;;4.70;;
25449;SDS011;13371;52.080;5.624;2024-02-21T05:01:42;10.68;;;5.10;;
25449;SDS011;13371;52.080;5.624;2024-02-21T05:04:07;9.35;;;5.07;;
25449;SDS011;13371;52.080;5.624;2024-02-21T05:06:39;12.80;;;5.18;;
25449;SDS011;13371;52.080;5.624;2024-02-21T05:09:06;13.43;;;5.72;;
25449;SDS011;13371;52.080;5.624;2024-02-21T05:11:32;18.90;;;5.50;;
25449;SDS011;13371;52.080;5.624;2024-02-21T05:13:57;13.18;;;5.00;;
25449;SDS011;13371;52.080;5.624;2024-02-21T05:16:23;12.45;;;5.07;;
25449;SDS011;13371;52.080;5.624;2024-02-21T05:18:48;9.75;;;5.20;;
25449;SDS011;13371;52.080;5.624;2024-02-21T05:21:14;12.20;;;5.43;;
25449;SDS011;13371;52.080;5.624;2024-02-21T05:23:40;9.73;;;5.18;;
25449;SDS011;13371;52.080;5.624;2024-02-21T05:26:06;13.88;;;6.00;;
25449;SDS011;13371;52.080;5.624;2024-02-21T05:28:31;14.15;;;6.00;;
25449;SDS011;13371;52.080;5.624;2024-02-21T05:30:57;19.08;;;7.13;;
25449;SDS011;13371;52.080;5.624;2024-02-21T05:33:23;11.75;;;6.22;;
25449;SDS011;13371;52.080;5.624;2024-02-21T05:35:49;14.88;;;5.82;;
25449;SDS011;13371;52.080;5.624;2024-02-21T05:38:15;15.48;;;6.07;;
25449;SDS011;13371;52.080;5.624;2024-02-21T05:40:41;15.40;;;6.43;;
25449;SDS011;13371;52.080;5.624;2024-02-21T05:43:07;13.65;;;6.55;;
25449;SDS011;13371;52.080;5.624;2024-02-21T05:45:33;11.95;;;6.30;;
25449;SDS011;13371;52.080;5.624;2024-02-21T05:47:59;15.10;;;6.88;;
25449;SDS011;13371;52.080;5.624;2024-02-21T05:50:25;14.43;;;6.45;;
25449;SDS011;13371;52.080;5.624;2024-02-21T05:52:54;16.38;;;5.97;;
25449;SDS011;13371;52.080;5.624;2024-02-21T05:55:20;17.05;;;6.38;;
25449;SDS011;13371;52.080;5.624;2024-02-21T05:57:46;15.40;;;6.15;;
25449;SDS011;13371;52.080;5.624;2024-02-21T06:00:12;14.20;;;5.78;;
25449;SDS011;13371;52.080;5.624;2024-02-21T06:02:38;18.75;;;6.55;;
25449;SDS011;13371;52.080;5.624;2024-02-21T06:05:05;14.32;;;7.13;;
25449;SDS011;13371;52.080;5.624;2024-02-21T06:07:32;12.38;;;6.70;;
25449;SDS011;13371;52.080;5.624;2024-02-21T06:09:58;13.98;;;7.72;;
25449;SDS011;13371;52.080;5.624;2024-02-21T06:12:24;16.85;;;7.72;;
25449;SDS011;13371;52.080;5.624;2024-02-21T06:14:50;18.95;;;7.60;;
25449;SDS011;13371;52.080;5.624;2024-02-21T06:17:16;16.50;;;7.57;;
25449;SDS011;13371;52.080;5.624;2024-02-21T06:19:42;17.63;;;6.95;;
25449;SDS011;13371;52.080;5.624;2024-02-21T06:22:08;21.25;;;8.30;;
25449;SDS011;13371;52.080;5.624;2024-02-21T06:24:34;19.40;;;9.07;;
25449;SDS011;13371;52.080;5.624;2024-02-21T06:27:01;19.55;;;8.20;;
25449;SDS011;13371;52.080;5.624;2024-02-21T06:29:27;21.25;;;9.05;;
25449;SDS011;13371;52.080;5.624;2024-02-21T06:31:53;17.65;;;9.35;;
25449;SDS011;13371;52.080;5.624;2024-02-21T06:34:18;22.52;;;8.73;;
25449;SDS011;13371;52.080;5.624;2024-02-21T06:36:44;20.15;;;9.10;;
25449;SDS011;13371;52.080;5.624;2024-02-21T06:39:10;18.40;;;9.98;;
25449;SDS011;13371;52.080;5.624;2024-02-21T06:41:36;24.17;;;9.73;;
25449;SDS011;13371;52.080;5.624;2024-02-21T06:44:02;22.30;;;9.82;;
25449;SDS011;13371;52.080;5.624;2024-02-21T06:46:28;18.85;;;9.38;;
25449;SDS011;13371;52.080;5.624;2024-02-21T06:48:54;20.23;;;9.20;;
25449;SDS011;13371;52.080;5.624;2024-02-21T06:51:21;24.35;;;9.85;;
25449;SDS011;13371;52.080;5.624;2024-02-21T06:53:47;17.27;;;9.02;;
25449;SDS011;13371;52.080;5.624;2024-02-21T06:56:13;23.27;;;9.20;;
25449;SDS011;13371;52.080;5.624;2024-02-21T06:58:39;21.85;;;8.77;;
25449;SDS011;13371;52.080;5.624;2024-02-21T07:01:04;21.30;;;9.02;;
25449;SDS011;13371;52.080;5.624;2024-02-21T07:03:30;18.38;;;8.30;;
25449;SDS011;13371;52.080;5.624;2024-02-21T07:05:55;21.20;;;8.15;;
25449;SDS011;13371;52.080;5.624;2024-02-21T07:08:21;22.60;;;8.90;;
25449;SDS011;13371;52.080;5.624;2024-02-21T07:10:46;15.38;;;7.60;;
25449;SDS011;13371;52.080;5.624;2024-02-21T07:13:12;19.58;;;8.50;;
25449;SDS011;13371;52.080;5.624;2024-02-21T07:15:38;22.60;;;9.02;;
25449;SDS011;13371;52.080;5.624;2024-02-21T07:18:04;24.17;;;9.45;;
25449;SDS011;13371;52.080;5.624;2024-02-21T07:20:29;18.83;;;8.77;;
25449;SDS011;13371;52.080;5.624;2024-02-21T07:22:55;15.80;;;6.47;;
25449;SDS011;13371;52.080;5.624;2024-02-21T07:25:20;20.10;;;7.45;;
25449;SDS011;13371;52.080;5.624;2024-02-21T07:27:46;16.98;;;7.28;;
25449;SDS011;13371;52.080;5.624;2024-02-21T07:30:12;19.00;;;7.13;;
25449;SDS011;13371;52.080;5.624;2024-02-21T07:32:37;18.65;;;7.63;;
25449;SDS011;13371;52.080;5.624;2024-02-21T07:35:04;18.33;;;7.85;;
25449;SDS011;13371;52.080;5.624;2024-02-21T07:37:30;17.77;;;7.18;;
25449;SDS011;13371;52.080;5.624;2024-02-21T07:39:56;20.60;;;6.93;;
25449;SDS011;13371;52.080;5.624;2024-02-21T07:42:21;18.30;;;7.30;;
25449;SDS011;13371;52.080;5.624;2024-02-21T07:44:47;20.13;;;7.50;;
25449;SDS011;13371;52.080;5.624;2024-02-21T07:47:12;15.73;;;6.65;;
25449;SDS011;13371;52.080;5.624;2024-02-21T07:49:43;18.77;;;7.22;;
25449;SDS011;13371;52.080;5.624;2024-02-21T07:52:10;20.25;;;6.80;;
25449;SDS011;13371;52.080;5.624;2024-02-21T07:54:36;14.68;;;6.78;;
25449;SDS011;13371;52.080;5.624;2024-02-21T07:57:01;22.77;;;6.75;;
25449;SDS011;13371;52.080;5.624;2024-02-21T07:59:27;14.45;;;6.85;;
25449;SDS011;13371;52.080;5.624;2024-02-21T08:01:56;12.70;;;6.03;;
25449;SDS011;13371;52.080;5.624;2024-02-21T08:04:22;16.17;;;6.70;;
25449;SDS011;13371;52.080;5.624;2024-02-21T08:06:51;13.63;;;6.95;;
25449;SDS011;13371;52.080;5.624;2024-02-21T08:09:18;17.13;;;7.07;;
25449;SDS011;13371;52.080;5.624;2024-02-21T08:11:44;12.50;;;6.18;;
25449;SDS011;13371;52.080;5.624;2024-02-21T08:14:09;15.00;;;6.85;;
25449;SDS011;13371;52.080;5.624;2024-02-21T08:16:35;18.77;;;6.20;;
25449;SDS011;13371;52.080;5.624;2024-02-21T08:19:00;21.10;;;6.95;;
25449;SDS011;13371;52.080;5.624;2024-02-21T08:21:29;13.70;;;6.68;;
25449;SDS011;13371;52.080;5.624;2024-02-21T08:23:54;13.95;;;7.03;;
25449;SDS011;13371;52.080;5.624;2024-02-21T08:26:20;22.52;;;6.45;;
25449;SDS011;13371;52.080;5.624;2024-02-21T08:28:45;15.48;;;6.55;;
25449;SDS011;13371;52.080;5.624;2024-02-21T08:31:17;12.98;;;6.40;;
25449;SDS011;13371;52.080;5.624;2024-02-21T08:33:43;12.30;;;5.88;;
25449;SDS011;13371;52.080;5.624;2024-02-21T08:36:09;12.82;;;6.22;;
25449;SDS011;13371;52.080;5.624;2024-02-21T08:38:41;19.67;;;6.73;;
25449;SDS011;13371;52.080;5.624;2024-02-21T08:41:07;19.55;;;7.35;;
25449;SDS011;13371;52.080;5.624;2024-02-21T08:43:32;17.67;;;6.65;;
25449;SDS011;13371;52.080;5.624;2024-02-21T08:46:00;12.27;;;6.25;;
25449;SDS011;13371;52.080;5.624;2024-02-21T08:48:25;17.95;;;7.20;;
25449;SDS011;13371;52.080;5.624;2024-02-21T08:50:51;21.80;;;7.18;;
25449;SDS011;13371;52.080;5.624;2024-02-21T08:53:16;21.10;;;7.05;;
25449;SDS011;13371;52.080;5.624;2024-02-21T08:55:42;17.42;;;6.47;;
25449;SDS011;13371;52.080;5.624;2024-02-21T08:58:09;18.17;;;6.82;;
25449;SDS011;13371;52.080;5.624;2024-02-21T09:00:35;19.27;;;6.97;;
25449;SDS011;13371;52.080;5.624;2024-02-21T09:03:00;21.35;;;7.57;;
25449;SDS011;13371;52.080;5.624;2024-02-21T09:05:26;12.90;;;6.45;;
25449;SDS011;13371;52.080;5.624;2024-02-21T09:07:51;12.07;;;6.28;;
25449;SDS011;13371;52.080;5.624;2024-02-21T09:10:17;17.80;;;5.95;;
25449;SDS011;13371;52.080;5.624;2024-02-21T09:12:43;17.08;;;6.10;;
25449;SDS011;13371;52.080;5.624;2024-02-21T09:15:08;15.50;;;6.78;;
25449;SDS011;13371;52.080;5.624;2024-02-21T09:17:35;14.00;;;6.53;;
25449;SDS011;13371;52.080;5.624;2024-02-21T09:20:01;16.38;;;6.05;;
25449;SDS011;13371;52.080;5.624;2024-02-21T09:22:28;18.15;;;5.88;;
25449;SDS011;13371;52.080;5.624;2024-02-21T09:24:54;14.80;;;7.05;;
25449;SDS011;13371;52.080;5.624;2024-02-21T09:27:20;16.95;;;5.65;;
25449;SDS011;13371;52.080;5.624;2024-02-21T09:29:46;18.27;;;6.90;;
25449;SDS011;13371;52.080;5.624;2024-02-21T09:32:11;15.80;;;6.53;;
25449;SDS011;13371;52.080;5.624;2024-02-21T09:34:37;16.67;;;6.30;;
25449;SDS011;13371;52.080;5.624;2024-02-21T09:37:03;11.90;;;5.82;;
25449;SDS011;13371;52.080;5.624;2024-02-21T09:39:28;12.63;;;6.55;;
25449;SDS011;13371;52.080;5.624;2024-02-21T09:41:59;15.60;;;5.93;;
25449;SDS011;13371;52.080;5.624;2024-02-21T09:44:36;16.23;;;5.82;;
25449;SDS011;13371;52.080;5.624;2024-02-21T09:47:04;11.48;;;6.18;;
25449;SDS011;13371;52.080;5.624;2024-02-21T09:49:35;11.95;;;5.50;;
25449;SDS011;13371;52.080;5.624;2024-02-21T09:52:07;17.38;;;5.10;;
25449;SDS011;13371;52.080;5.624;2024-02-21T09:54:33;14.65;;;5.75;;
25449;SDS011;13371;52.080;5.624;2024-02-21T09:56:59;14.30;;;5.45;;
25449;SDS011;13371;52.080;5.624;2024-02-21T09:59:27;12.80;;;5.78;;
25449;SDS011;13371;52.080;5.624;2024-02-21T10:01:53;10.82;;;5.28;;
25449;SDS011;13371;52.080;5.624;2024-02-21T10:04:20;10.93;;;4.78;;
25449;SDS011;13371;52.080;5.624;2024-02-21T10:06:46;13.00;;;4.90;;
25449;SDS011;13371;52.080;5.624;2024-02-21T10:09:21;9.20;;;5.32;;
25449;SDS011;13371;52.080;5.624;2024-02-21T10:11:48;8.45;;;4.28;;
25449;SDS011;13371;52.080;5.624;2024-02-21T10:14:14;10.55;;;4.60;;
25449;SDS011;13371;52.080;5.624;2024-02-21T10:16:40;10.57;;;5.20;;
25449;SDS011;13371;52.080;5.624;2024-02-21T10:19:15;8.48;;;4.07;;
25449;SDS011;13371;52.080;5.624;2024-02-21T10:21:44;9.95;;;4.70;;
25449;SDS011;13371;52.080;5.624;2024-02-21T10:24:26;11.77;;;4.32;;
25449;SDS011;13371;52.080;5.624;2024-02-21T10:27:00;8.40;;;4.53;;
25449;SDS011;13371;52.080;5.624;2024-02-21T10:29:30;9.75;;;4.47;;
25449;SDS011;13371;52.080;5.624;2024-02-21T10:32:09;9.05;;;4.72;;
25449;SDS011;13371;52.080;5.624;2024-02-21T10:34:36;7.57;;;4.15;;
25449;SDS011;13371;52.080;5.624;2024-02-21T10:37:04;8.13;;;4.57;;
25449;SDS011;13371;52.080;5.624;2024-02-21T10:39:38;8.18;;;4.47;;
25449;SDS011;13371;52.080;5.624;2024-02-21T10:42:05;11.30;;;4.35;;
25449;SDS011;13371;52.080;5.624;2024-02-21T10:44:40;8.40;;;3.58;;
25449;SDS011;13371;52.080;5.624;2024-02-21T10:47:10;8.10;;;3.95;;
25449;SDS011;13371;52.080;5.624;2024-02-21T10:49:39;10.60;;;3.90;;
25449;SDS011;13371;52.080;5.624;2024-02-21T10:54:58;4.85;;;3.13;;
25449;SDS011;13371;52.080;5.624;2024-02-21T10:57:29;7.93;;;3.67;;
25449;SDS011;13371;52.080;5.624;2024-02-21T10:59:58;8.35;;;3.60;;
25449;SDS011;13371;52.080;5.624;2024-02-21T11:02:24;7.90;;;3.88;;
25449;SDS011;13371;52.080;5.624;2024-02-21T11:04:51;5.80;;;3.60;;
25449;SDS011;13371;52.080;5.624;2024-02-21T11:07:18;8.18;;;4.20;;
25449;SDS011;13371;52.080;5.624;2024-02-21T11:09:51;7.60;;;4.07;;
25449;SDS011;13371;52.080;5.624;2024-02-21T11:12:21;7.18;;;4.30;;
25449;SDS011;13371;52.080;5.624;2024-02-21T11:14:47;8.40;;;4.82;;
25449;SDS011;13371;52.080;5.624;2024-02-21T11:17:17;11.55;;;5.20;;
25449;SDS011;13371;52.080;5.624;2024-02-21T11:19:43;10.02;;;5.03;;
25449;SDS011;13371;52.080;5.624;2024-02-21T11:22:16;8.95;;;4.45;;
25449;SDS011;13371;52.080;5.624;2024-02-21T11:24:42;9.93;;;5.00;;
25449;SDS011;13371;52.080;5.624;2024-02-21T11:27:15;8.57;;;5.22;;
25449;SDS011;13371;52.080;5.624;2024-02-21T11:29:48;11.25;;;6.55;;
25449;SDS011;13371;52.080;5.624;2024-02-21T11:32:16;8.10;;;5.30;;
25449;SDS011;13371;52.080;5.624;2024-02-21T11:35:19;9.57;;;5.70;;
25449;SDS011;13371;52.080;5.624;2024-02-21T11:37:44;9.05;;;5.80;;
25449;SDS011;13371;52.080;5.624;2024-02-21T11:40:11;11.23;;;6.28;;
25449;SDS011;13371;52.080;5.624;2024-02-21T11:42:37;10.45;;;6.15;;
25449;SDS011;13371;52.080;5.624;2024-02-21T11:45:03;13.05;;;6.47;;
25449;SDS011;13371;52.080;5.624;2024-02-21T11:47:29;12.40;;;6.30;;
25449;SDS011;13371;52.080;5.624;2024-02-21T11:49:54;14.02;;;6.60;;
25449;SDS011;13371;52.080;5.624;2024-02-21T11:52:24;13.68;;;6.60;;
25449;SDS011;13371;52.080;5.624;2024-02-21T11:54:51;14.43;;;6.80;;
25449;SDS011;13371;52.080;5.624;2024-02-21T11:57:21;10.27;;;5.93;;
25449;SDS011;13371;52.080;5.624;2024-02-21T11:59:50;11.90;;;6.93;;
25449;SDS011;13371;52.080;5.624;2024-02-21T12:02:17;9.57;;;5.70;;
25449;SDS011;13371;52.080;5.624;2024-02-21T12:04:43;10.15;;;5.80;;
25449;SDS011;13371;52.080;5.624;2024-02-21T12:07:09;8.63;;;5.45;;
25449;SDS011;13371;52.080;5.624;2024-02-21T12:09:38;11.93;;;6.03;;
25449;SDS011;13371;52.080;5.624;2024-02-21T12:12:07;10.30;;;5.78;;
25449;SDS011;13371;52.080;5.624;2024-02-21T12:14:33;8.13;;;5.35;;
25449;SDS011;13371;52.080;5.624;2024-02-21T12:17:00;13.30;;;5.82;;
25449;SDS011;13371;52.080;5.624;2024-02-21T12:19:29;9.98;;;5.88;;
25449;SDS011;13371;52.080;5.624;2024-02-21T12:21:56;8.43;;;4.75;;
25449;SDS011;13371;52.080;5.624;2024-02-21T12:24:24;9.70;;;5.05;;
25449;SDS011;13371;52.080;5.624;2024-02-21T12:26:51;10.00;;;5.43;;
25449;SDS011;13371;52.080;5.624;2024-02-21T12:29:20;9.68;;;4.13;;
25449;SDS011;13371;52.080;5.624;2024-02-21T12:31:46;9.70;;;4.32;;
25449;SDS011;13371;52.080;5.624;2024-02-21T12:34:12;6.57;;;3.92;;
25449;SDS011;13371;52.080;5.624;2024-02-21T12:36:41;11.70;;;4.57;;
25449;SDS011;13371;52.080;5.624;2024-02-21T12:39:08;8.52;;;4.35;;
25449;SDS011;13371;52.080;5.624;2024-02-21T12:41:35;10.02;;;4.22;;
25449;SDS011;13371;52.080;5.624;2024-02-21T12:44:03;8.35;;;4.22;;
25449;SDS011;13371;52.080;5.624;2024-02-21T12:46:31;9.00;;;4.00;;
25449;SDS011;13371;52.080;5.624;2024-02-21T12:49:01;8.63;;;3.63;;
25449;SDS011;13371;52.080;5.624;2024-02-21T12:51:27;10.27;;;4.38;;
25449;SDS011;13371;52.080;5.624;2024-02-21T12:53:52;10.73;;;4.40;;
25449;SDS011;13371;52.080;5.624;2024-02-21T12:56:18;8.27;;;3.70;;
25449;SDS011;13371;52.080;5.624;2024-02-21T12:58:43;9.75;;;4.20;;
25449;SDS011;13371;52.080;5.624;2024-02-21T13:01:09;9.57;;;4.20;;
25449;SDS011;13371;52.080;5.624;2024-02-21T13:03:35;12.07;;;4.00;;
25449;SDS011;13371;52.080;5.624;2024-02-21T13:06:01;12.68;;;3.53;;
25449;SDS011;13371;52.080;5.624;2024-02-21T13:08:26;9.23;;;3.65;;
25449;SDS011;13371;52.080;5.624;2024-02-21T13:10:52;6.57;;;3.78;;
25449;SDS011;13371;52.080;5.624;2024-02-21T13:13:17;7.90;;;3.65;;
25449;SDS011;13371;52.080;5.624;2024-02-21T13:15:43;8.73;;;3.47;;
25449;SDS011;13371;52.080;5.624;2024-02-21T13:18:09;9.07;;;3.55;;
25449;SDS011;13371;52.080;5.624;2024-02-21T13:20:35;7.47;;;3.88;;
25449;SDS011;13371;52.080;5.624;2024-02-21T13:23:01;11.77;;;3.63;;
25449;SDS011;13371;52.080;5.624;2024-02-21T13:25:27;7.85;;;3.58;;
25449;SDS011;13371;52.080;5.624;2024-02-21T13:27:53;6.38;;;3.40;;
25449;SDS011;13371;52.080;5.624;2024-02-21T13:30:18;10.07;;;3.30;;
25449;SDS011;13371;52.080;5.624;2024-02-21T13:32:44;11.30;;;3.65;;
25449;SDS011;13371;52.080;5.624;2024-02-21T13:35:13;8.13;;;3.92;;
25449;SDS011;13371;52.080;5.624;2024-02-21T13:37:40;7.32;;;3.95;;
25449;SDS011;13371;52.080;5.624;2024-02-21T13:40:06;8.43;;;3.40;;
25449;SDS011;13371;52.080;5.624;2024-02-21T13:42:39;10.05;;;4.15;;
25449;SDS011;13371;52.080;5.624;2024-02-21T13:45:05;9.30;;;3.72;;
25449;SDS011;13371;52.080;5.624;2024-02-21T13:47:31;8.70;;;3.95;;
25449;SDS011;13371;52.080;5.624;2024-02-21T13:49:58;7.28;;;3.38;;
25449;SDS011;13371;52.080;5.624;2024-02-21T13:52:23;7.68;;;3.40;;
25449;SDS011;13371;52.080;5.624;2024-02-21T13:54:51;6.85;;;3.42;;
25449;SDS011;13371;52.080;5.624;2024-02-21T13:57:17;7.00;;;3.58;;
25449;SDS011;13371;52.080;5.624;2024-02-21T13:59:43;10.00;;;3.33;;
25449;SDS011;13371;52.080;5.624;2024-02-21T14:02:08;5.78;;;3.08;;
25449;SDS011;13371;52.080;5.624;2024-02-21T14:04:34;12.40;;;3.63;;
25449;SDS011;13371;52.080;5.624;2024-02-21T14:07:00;6.15;;;3.10;;
25449;SDS011;13371;52.080;5.624;2024-02-21T14:09:26;11.77;;;3.90;;
25449;SDS011;13371;52.080;5.624;2024-02-21T14:11:54;9.57;;;3.42;;
25449;SDS011;13371;52.080;5.624;2024-02-21T14:14:20;10.45;;;3.33;;
25449;SDS011;13371;52.080;5.624;2024-02-21T14:16:45;7.88;;;2.92;;
25449;SDS011;13371;52.080;5.624;2024-02-21T14:19:12;12.27;;;5.53;;
25449;SDS011;13371;52.080;5.624;2024-02-21T14:21:38;6.30;;;3.30;;
25449;SDS011;13371;52.080;5.624;2024-02-21T14:24:04;10.70;;;3.60;;
25449;SDS011;13371;52.080;5.624;2024-02-21T14:26:31;14.02;;;3.15;;
25449;SDS011;13371;52.080;5.624;2024-02-21T14:28:57;6.85;;;2.75;;
25449;SDS011;13371;52.080;5.624;2024-02-21T14:31:23;7.30;;;3.30;;
25449;SDS011;13371;52.080;5.624;2024-02-21T14:33:48;8.75;;;3.10;;
25449;SDS011;13371;52.080;5.624;2024-02-21T14:36:14;9.23;;;2.47;;
25449;SDS011;13371;52.080;5.624;2024-02-21T14:38:42;7.05;;;2.42;;